Jamestown, Michigan
Current Conditions -  °F | °C
As of 11:53 AM on Friday 28 Nov 2014 (Local Time) from KBIV Reporting Station
Overcast Overcast  
Wind Chill: 14°   Ceiling: 4400
Heat Index: 26°   Visibility: 10mi
Dew Point: 14°   Wind: 15mph
Humidity: 60%   Direction: 190°S
Pressure: 30.23"   Gusts: NA
Location:  42.83°N, 85.84°W
Report Text: KBIV 281653Z AUTO 19013KT 10SM FEW037 BKN044 OVC060 M03/M10 A3023 RMK AO2 SLP247 T10331100
Loading
Personal Weather Stations






























Interactive Weather Map New forecast layout! Learn more

10-Day Weather Forecast

Advertisements
Track Severe Weather on mobile